Pontevedra, Spain
Current Conditions -  °F | °C
As of 1:30 PM on Saturday 01 Nov 2014 (Local Time) from LEVX Reporting Station
Scattered Clouds Scattered Clouds  
Wind Chill: 64°   Ceiling: Unl
Heat Index: 64°   Visibility: 6mi
Dew Point: 54°   Wind: 6mph
Humidity: 68%   Direction: 310°NW
Pressure: 30.24"   Gusts: NA
Location:  42.43°N, 8.65°W
Report Text: LEVX 011230Z 31005KT 250V360 9999 FEW015TCU SCT025 18/12 Q1024 NOSIG
Loading
Personal Weather Stations






























Interactive Weather Map
Tropical Storm Tracking
New forecast layout! Learn more

10-Day Weather Forecast

Advertisements
Track Severe Weather on mobile